createdAt,value
2023-05-18T00:01:12.172Z,9.19
2023-05-18T00:06:30.861Z,9.25
2023-05-18T00:11:49.660Z,9.56
2023-05-18T00:17:08.313Z,9.56
2023-05-18T00:22:26.525Z,9.81
2023-05-18T00:27:44.777Z,9.56
2023-05-18T00:33:03.479Z,9.5
2023-05-18T00:38:21.726Z,9.5
2023-05-18T00:43:40.405Z,9.44
2023-05-18T00:48:58.434Z,9.56
2023-05-18T00:54:17.146Z,9.56
2023-05-18T00:59:35.776Z,9.63
2023-05-18T01:04:54.011Z,9.44
2023-05-18T01:10:12.364Z,9.38
2023-05-18T01:15:31.182Z,9.38
2023-05-18T01:20:49.653Z,9.5
2023-05-18T01:26:08.228Z,9.44
2023-05-18T01:31:26.893Z,9.44
2023-05-18T01:36:44.967Z,9.38
2023-05-18T01:42:03.574Z,9.38
2023-05-18T01:47:22.171Z,9.38
2023-05-18T01:52:40.475Z,9.25
2023-05-18T01:57:58.952Z,9.13
2023-05-18T02:03:17.476Z,9.13
2023-05-18T02:08:35.990Z,9.13
2023-05-18T02:13:54.615Z,9.06
2023-05-18T02:19:13.392Z,9.13
2023-05-18T02:24:32.128Z,9
2023-05-18T02:29:50.563Z,8.94
2023-05-18T02:35:09.214Z,9.06
2023-05-18T02:40:27.452Z,8.94
2023-05-18T02:45:45.647Z,8.88
2023-05-18T02:51:04.309Z,8.88
2023-05-18T02:56:22.717Z,8.75
2023-05-18T03:01:41.162Z,8.69
2023-05-18T03:06:59.358Z,8.69
2023-05-18T03:17:16.253Z,8.56
2023-05-18T03:22:34.780Z,8.5
2023-05-18T03:27:53.016Z,8.69
2023-05-18T03:33:11.292Z,8.56
2023-05-18T03:38:29.931Z,8.5
2023-05-18T03:43:48.628Z,8.63
2023-05-18T03:49:06.833Z,8.63
2023-05-18T03:54:25.697Z,8.44
2023-05-18T03:59:44.408Z,8.5
2023-05-18T04:05:02.938Z,8.5
2023-05-18T04:10:21.642Z,8.5
2023-05-18T04:15:40.274Z,8.63
2023-05-18T04:20:58.546Z,8.81
2023-05-18T04:26:17.239Z,8.69
2023-05-18T04:31:35.915Z,8.81
2023-05-18T04:36:54.590Z,8.63
2023-05-18T04:42:13.320Z,8.69
2023-05-18T04:47:32.052Z,8.75
2023-05-18T04:52:50.747Z,8.88
2023-05-18T04:58:08.900Z,9.13
2023-05-18T05:03:27.573Z,9.06
2023-05-18T05:08:46.277Z,9.13
2023-05-18T05:14:05.062Z,9.31
2023-05-18T05:19:23.842Z,9.38
2023-05-18T05:24:42.116Z,9.38
2023-05-18T05:30:00.842Z,9.5
2023-05-18T05:35:19.247Z,9.5
2023-05-18T05:40:37.939Z,9.56
2023-05-18T05:45:56.726Z,9.75
2023-05-18T05:51:15.317Z,9.81
2023-05-18T05:56:33.612Z,9.88
2023-05-18T06:01:52.302Z,10.13
2023-05-18T06:07:11.064Z,10.13
2023-05-18T06:12:29.867Z,10.25
2023-05-18T06:17:48.183Z,10.5
2023-05-18T06:23:06.463Z,10.69
2023-05-18T06:28:25.121Z,10.81
2023-05-18T06:33:43.913Z,11
2023-05-18T06:39:02.741Z,11.38
2023-05-18T06:44:21.489Z,11.5
2023-05-18T06:49:40.251Z,11.81
2023-05-18T06:54:59.146Z,12
2023-05-18T07:00:17.961Z,12.25
2023-05-18T07:05:38.579Z,12.44
2023-05-18T07:10:56.379Z,12.81
2023-05-18T07:16:15.818Z,13.31
2023-05-18T07:21:34.935Z,13.88
2023-05-18T07:26:53.573Z,14.13
2023-05-18T07:32:11.996Z,14.81
2023-05-18T07:37:30.640Z,15.19
2023-05-18T07:42:49.101Z,15.69
2023-05-18T07:48:08.133Z,15.88
2023-05-18T07:53:26.684Z,16.19
2023-05-18T07:58:46.466Z,16.69
2023-05-18T08:04:05.258Z,16.87
2023-05-18T08:09:23.686Z,17.06
2023-05-18T08:14:42.364Z,17.62
2023-05-18T08:20:00.827Z,17.62
2023-05-18T08:25:19.437Z,17.56
2023-05-18T08:30:38.120Z,17.62
2023-05-18T08:35:56.810Z,18.44
2023-05-18T08:41:15.410Z,18.56
2023-05-18T08:46:34.193Z,18.56
2023-05-18T08:51:52.612Z,19.06
2023-05-18T08:57:11.491Z,18.81
2023-05-18T09:02:30.264Z,19.56
2023-05-18T09:07:49.062Z,19.5
2023-05-18T09:13:08.061Z,20.75
2023-05-18T09:18:28.309Z,20.31
2023-05-18T09:23:45.395Z,19.62
2023-05-18T09:29:04.181Z,19.94
2023-05-18T09:34:22.764Z,20.19
2023-05-18T09:39:41.334Z,19.94
2023-05-18T09:44:59.675Z,20.81
2023-05-18T09:50:18.158Z,20.37
2023-05-18T09:55:37.007Z,20.56
2023-05-18T10:00:55.688Z,21.12
2023-05-18T10:06:14.350Z,20.88
2023-05-18T10:11:33.042Z,20.75
2023-05-18T10:16:55.162Z,20.75
2023-05-18T10:22:10.274Z,20.88
2023-05-18T10:27:28.897Z,21
2023-05-18T10:32:47.757Z,21.25
2023-05-18T10:38:06.000Z,21.62
2023-05-18T10:48:28.563Z,21.19
2023-05-18T10:53:47.188Z,20.56
2023-05-18T10:59:05.434Z,20.12
2023-05-18T11:04:23.925Z,20.94
2023-05-18T11:09:42.620Z,21.62
2023-05-18T11:15:03.589Z,21.62
2023-05-18T11:20:19.985Z,21.69
2023-05-18T11:25:38.636Z,22
2023-05-18T11:30:57.769Z,22.13
2023-05-18T11:36:16.150Z,21.94
2023-05-18T11:41:34.660Z,21.94
2023-05-18T11:46:53.533Z,21.94
2023-05-18T11:52:12.130Z,22.5
2023-05-18T11:57:30.884Z,22.44
2023-05-18T12:02:50.242Z,22.69
2023-05-18T12:08:08.519Z,21.19
2023-05-18T12:13:25.837Z,21.56
2023-05-18T12:18:45.037Z,21.87
2023-05-18T12:24:03.425Z,21
2023-05-18T12:29:22.619Z,21.37
2023-05-18T12:34:41.551Z,22.06
2023-05-18T12:40:00.340Z,22.44
2023-05-18T12:45:18.889Z,22.31
2023-05-18T12:50:36.831Z,20.56
2023-05-18T12:55:55.701Z,22.13
2023-05-18T13:01:14.657Z,22.44
2023-05-18T13:06:33.970Z,22.81
2023-05-18T13:12:03.877Z,22.19
2023-05-18T13:17:12.152Z,22.5
2023-05-18T13:22:30.803Z,22.06
2023-05-18T13:27:49.321Z,21.44
2023-05-18T13:33:06.375Z,20.44
2023-05-18T13:38:25.208Z,21.81
2023-05-18T13:43:43.728Z,22.19
2023-05-18T13:49:02.325Z,22.5
2023-05-18T13:54:20.810Z,22.44
2023-05-18T13:59:39.492Z,22.62
2023-05-18T14:04:57.403Z,20.44
2023-05-18T14:10:15.572Z,21.94
2023-05-18T14:15:34.568Z,22.5
2023-05-18T14:20:53.158Z,22.62
2023-05-18T14:31:18.625Z,21.44
2023-05-18T14:36:36.714Z,19.62
2023-05-18T14:41:54.743Z,19.75
2023-05-18T14:47:13.944Z,21.37
2023-05-18T14:52:32.886Z,21.87
2023-05-18T14:57:51.771Z,22.31
2023-05-18T15:03:10.565Z,21.69
2023-05-18T15:08:29.162Z,22
2023-05-18T15:13:48.086Z,21.69
2023-05-18T15:19:06.759Z,21.81
2023-05-18T15:24:25.211Z,21.44
2023-05-18T15:29:43.835Z,21
2023-05-18T15:35:02.570Z,21.31
2023-05-18T15:40:21.093Z,21.37
2023-05-18T15:45:39.354Z,21.31
2023-05-18T15:50:58.143Z,21
2023-05-18T15:56:16.794Z,20.37
2023-05-18T16:01:35.212Z,20.56
2023-05-18T16:06:53.870Z,20.56
2023-05-18T16:12:12.452Z,20.44
2023-05-18T16:17:31.075Z,20.19
2023-05-18T16:22:49.750Z,20.06
2023-05-18T16:28:07.958Z,20
2023-05-18T16:33:27.973Z,19.94
2023-05-18T16:38:44.959Z,19.31
2023-05-18T16:44:03.425Z,18.75
2023-05-18T16:49:21.651Z,18.56
2023-05-18T16:54:40.190Z,18.62
2023-05-18T16:59:58.673Z,19
2023-05-18T17:05:17.164Z,18.94
2023-05-18T17:10:35.038Z,18
2023-05-18T17:15:53.338Z,17.5
2023-05-18T17:21:11.965Z,17.94
2023-05-18T17:26:31.030Z,18
2023-05-18T17:31:49.750Z,17.87
2023-05-18T17:37:08.293Z,17.25
2023-05-18T17:42:26.597Z,16.87
2023-05-18T17:47:44.684Z,16.56
2023-05-18T17:53:02.978Z,16.25
2023-05-18T17:58:21.147Z,16.12
2023-05-18T18:03:39.951Z,16.19
2023-05-18T18:08:58.090Z,16.19
2023-05-18T18:14:16.834Z,15.94
2023-05-18T18:19:35.363Z,15.63
2023-05-18T18:24:53.969Z,15.63
2023-05-18T18:30:12.506Z,15.63
2023-05-18T18:35:31.070Z,15.25
2023-05-18T18:40:49.625Z,14.87
2023-05-18T18:46:08.246Z,14.69
2023-05-18T18:51:26.737Z,14.44
2023-05-18T18:56:45.235Z,14.25
2023-05-18T19:02:03.988Z,14
2023-05-18T19:07:21.982Z,13.81
2023-05-18T19:12:40.327Z,13.56
2023-05-18T19:17:59.147Z,13.38
2023-05-18T19:23:17.581Z,13.19
2023-05-18T19:28:36.174Z,12.94
2023-05-18T19:33:54.832Z,12.69
2023-05-18T19:39:13.328Z,12.5
2023-05-18T19:44:31.868Z,12.37
2023-05-18T19:49:50.735Z,12.25
2023-05-18T20:00:08.205Z,11.94
2023-05-18T20:05:26.451Z,11.81
2023-05-18T20:10:45.004Z,11.69
2023-05-18T20:21:11.027Z,11.38
2023-05-18T20:31:28.316Z,11.19
2023-05-18T20:41:45.554Z,11.06
2023-05-18T20:57:10.049Z,11.12
2023-05-18T21:02:28.962Z,11.31
2023-05-18T21:12:46.205Z,11.94
2023-05-18T21:18:04.535Z,12.25
2023-05-18T21:23:24.278Z,12.31
2023-05-18T21:33:42.951Z,12.5
2023-05-18T21:39:01.533Z,12.56
2023-05-18T21:44:20.263Z,12.56
2023-05-18T21:49:39.063Z,12.56
2023-05-18T21:54:57.765Z,12.75
2023-05-18T22:00:16.037Z,12.75
2023-05-18T22:05:34.671Z,12.56
2023-05-18T22:10:53.066Z,12.5
2023-05-18T22:16:11.667Z,12.5
2023-05-18T22:21:30.374Z,12.56
2023-05-18T22:26:49.031Z,12.56
2023-05-18T22:37:14.531Z,12.44
2023-05-18T22:42:33.131Z,12.37
2023-05-18T22:47:51.465Z,12.31
2023-05-18T22:53:10.129Z,12.25
2023-05-18T22:58:28.908Z,12.19
2023-05-18T23:03:47.288Z,12.13
2023-05-18T23:09:05.607Z,12.19
2023-05-18T23:14:23.861Z,12.06
2023-05-18T23:19:42.139Z,12.25
2023-05-18T23:25:00.549Z,12.13
2023-05-18T23:30:18.835Z,12.06
2023-05-18T23:35:37.197Z,12.13
2023-05-18T23:40:55.559Z,12.06
2023-05-18T23:46:15.120Z,12
2023-05-18T23:51:33.397Z,12.06
2023-05-18T23:56:53.108Z,12
